Time;durP1;ratioP1;P1;durP2;ratioP2;P2;SDS_P1;SDS_P2;PMS_P1;PMS_P2;Temp;Humidity;BMP_temperature;BMP_pressure;BME280_temperature;BME280_humidity;BME280_pressure;Samples;Min_cycle;Max_cycle;Signal;HPM_P1;HPM_P2
2021/04/14 00:01:21;;;;;;;11.10;6.43;;;;;;;2.12;66.57;97282.41;5050422;28;20049;-67
2021/04/14 00:03:47;;;;;;;13.38;5.60;;;;;;;2.09;66.94;97280.22;5052465;28;20077;-67
2021/04/14 00:06:13;;;;;;;13.63;8.05;;;;;;;2.06;67.93;97278.00;5050627;28;20544;-67
2021/04/14 00:08:40;;;;;;;13.05;7.88;;;;;;;2.07;68.54;97276.94;5052469;28;20074;-67
2021/04/14 00:11:08;;;;;;;14.60;8.10;;;;;;;2.03;69.23;97273.09;5050091;28;20057;-67
2021/04/14 00:13:41;;;;;;;13.50;8.68;;;;;;;1.99;69.84;97271.97;5051776;28;20561;-67
2021/04/14 00:16:12;;;;;;;17.38;10.35;;;;;;;1.89;71.00;97269.09;5051012;28;20045;-67
2021/04/14 00:18:38;;;;;;;16.48;10.15;;;;;;;1.90;71.49;97270.72;5051061;28;20052;-67
2021/04/14 00:21:04;;;;;;;19.67;12.10;;;;;;;1.86;71.99;97269.56;5051221;28;20045;-67
2021/04/14 00:23:30;;;;;;;19.42;11.73;;;;;;;1.83;72.65;97266.31;5050609;28;20048;-67
2021/04/14 00:25:57;;;;;;;17.60;11.10;;;;;;;1.87;72.70;97272.00;5051693;28;20503;-67
2021/04/14 00:28:24;;;;;;;20.15;11.63;;;;;;;1.92;72.54;97268.59;5050500;28;20485;-67
2021/04/14 00:30:52;;;;;;;19.90;11.77;;;;;;;1.96;72.76;97264.38;5051068;28;20041;-67
2021/04/14 00:33:18;;;;;;;23.15;13.50;;;;;;;1.97;72.92;97263.34;5050059;28;20045;-67
2021/04/14 00:35:44;;;;;;;21.42;13.32;;;;;;;1.93;73.22;97260.34;5051611;28;20120;-67
2021/04/14 00:38:12;;;;;;;21.02;12.65;;;;;;;1.94;73.42;97270.00;5050608;28;20041;-67
2021/04/14 00:40:41;;;;;;;20.02;12.45;;;;;;;1.95;73.47;97265.44;5051165;28;20626;-67
2021/04/14 00:43:11;;;;;;;21.67;13.05;;;;;;;1.96;73.69;97267.88;5050666;28;20063;-67
2021/04/14 00:45:37;;;;;;;20.40;13.25;;;;;;;1.94;74.01;97266.50;5050431;28;20044;-67
2021/04/14 00:48:04;;;;;;;24.50;13.43;;;;;;;1.89;74.36;97261.06;5050894;28;20053;-67
2021/04/14 00:50:30;;;;;;;25.65;14.00;;;;;;;1.92;74.29;97265.91;5049967;28;20204;-66
2021/04/14 00:52:56;;;;;;;24.02;15.13;;;;;;;1.97;74.30;97266.81;5051332;28;20132;-67
2021/04/14 00:55:24;;;;;;;21.73;13.73;;;;;;;2.05;74.05;97268.31;5049839;28;20119;-67
2021/04/14 00:57:50;;;;;;;24.75;14.07;;;;;;;2.13;73.98;97257.16;5048406;28;20044;-67
2021/04/14 01:00:33;;;;;;;23.55;13.88;;;;;;;2.14;73.92;97261.50;5049679;28;20048;-67
2021/04/14 01:02:59;;;;;;;22.83;13.98;;;;;;;2.17;73.79;97252.94;5050434;28;20056;-67
2021/04/14 01:05:27;;;;;;;22.10;14.45;;;;;;;2.08;73.76;97251.72;5050224;28;20045;-67
2021/04/14 01:07:53;;;;;;;22.30;13.93;;;;;;;2.14;73.98;97257.97;5050022;28;20099;-67
2021/04/14 01:10:20;;;;;;;27.30;14.50;;;;;;;2.02;74.09;97252.69;5050571;28;20531;-67
2021/04/14 01:12:46;;;;;;;23.88;14.35;;;;;;;1.94;74.14;97250.41;5049577;28;20072;-66
2021/04/14 01:15:16;;;;;;;26.50;14.73;;;;;;;1.73;74.88;97246.53;5050531;28;20048;-67
2021/04/14 01:17:43;;;;;;;24.67;13.95;;;;;;;1.72;74.89;97248.38;5049730;28;20463;-67
2021/04/14 01:20:10;;;;;;;25.30;14.45;;;;;;;1.60;75.24;97249.47;5050176;28;20049;-67
2021/04/14 01:22:36;;;;;;;23.83;13.45;;;;;;;1.65;74.87;97242.31;5049723;28;20060;-66
2021/04/14 01:25:05;;;;;;;23.27;12.70;;;;;;;1.67;74.46;97244.75;5049338;28;20053;-67
2021/04/14 01:27:31;;;;;;;22.80;13.18;;;;;;;1.75;74.35;97247.91;5049893;28;20052;-67
2021/04/14 01:29:57;;;;;;;20.10;12.38;;;;;;;1.83;73.85;97244.84;5049765;28;20069;-67
2021/04/14 01:32:26;;;;;;;23.05;12.68;;;;;;;1.81;73.47;97246.94;5050067;28;20067;-67
2021/04/14 01:34:52;;;;;;;21.40;12.77;;;;;;;1.86;73.59;97242.72;5049415;28;20124;-66
2021/04/14 01:37:18;;;;;;;19.10;12.18;;;;;;;1.93;73.22;97248.75;5050285;28;20049;-67
2021/04/14 01:39:45;;;;;;;20.02;11.60;;;;;;;1.90;72.71;97246.56;5049557;28;20055;-67
2021/04/14 01:42:11;;;;;;;19.02;11.63;;;;;;;1.90;72.33;97238.50;5049800;28;20048;-67
2021/04/14 01:44:39;;;;;;;18.88;11.43;;;;;;;1.90;72.40;97244.69;5049872;28;20099;-67
2021/04/14 01:47:05;;;;;;;17.30;10.88;;;;;;;1.90;71.91;97243.88;5049708;28;20045;-67
2021/04/14 01:49:31;;;;;;;18.02;11.40;;;;;;;1.96;71.77;97242.91;5049662;28;20045;-67
2021/04/14 01:51:56;;;;;;;17.13;10.10;;;;;;;2.00;71.37;97244.06;5049546;28;20049;-67
2021/04/14 01:54:23;;;;;;;16.17;10.13;;;;;;;2.03;70.81;97239.00;5049649;28;20607;-66
2021/04/14 01:56:49;;;;;;;16.58;9.85;;;;;;;1.99;70.50;97231.69;5049214;28;20045;-67
2021/04/14 01:59:15;;;;;;;22.27;11.27;;;;;;;1.91;70.91;97240.94;5049756;28;20057;-66
2021/04/14 02:01:41;;;;;;;18.08;11.45;;;;;;;1.75;71.27;97242.53;5049245;28;20514;-67
2021/04/14 02:04:07;;;;;;;21.60;12.82;;;;;;;1.68;72.09;97241.06;5049995;28;20132;-67
2021/04/14 02:06:33;;;;;;;20.60;12.80;;;;;;;1.68;72.12;97247.22;5049302;28;20411;-67
2021/04/14 02:08:59;;;;;;;19.85;11.15;;;;;;;1.65;71.96;97241.50;5050067;28;20119;-66
2021/04/14 02:11:25;;;;;;;19.60;12.02;;;;;;;1.66;71.67;97233.22;5048943;28;20500;-66
2021/04/14 02:13:52;;;;;;;21.38;11.32;;;;;;;1.69;71.39;97240.81;5049884;28;20131;-67
2021/04/14 02:16:21;;;;;;;17.50;10.43;;;;;;;1.70;71.38;97233.56;5049258;28;20430;-66
2021/04/14 02:18:47;;;;;;;16.95;9.65;;;;;;;1.66;70.78;97233.22;5048510;28;20129;-66
2021/04/14 02:21:13;;;;;;;18.25;10.45;;;;;;;1.49;70.38;97229.66;5049138;28;20057;-67
2021/04/14 02:23:41;;;;;;;15.65;9.82;;;;;;;1.41;70.85;97230.03;5047154;28;20576;-66
2021/04/14 02:26:09;;;;;;;15.23;9.05;;;;;;;1.36;70.53;97238.81;5049423;28;20079;-67
2021/04/14 02:28:35;;;;;;;13.73;8.05;;;;;;;1.29;70.41;97235.44;5049001;28;20049;-66
2021/04/14 02:31:03;;;;;;;16.58;8.23;;;;;;;1.32;70.63;97242.22;5049450;28;20550;-67
2021/04/14 02:33:29;;;;;;;13.05;8.27;;;;;;;1.28;70.27;97240.00;5049298;28;20044;-67
2021/04/14 02:35:55;;;;;;;14.32;8.30;;;;;;;1.29;70.20;97236.25;5052531;28;20582;-67
2021/04/14 02:38:23;;;;;;;16.10;8.93;;;;;;;1.32;70.09;97237.66;5052884;28;20060;-67
2021/04/14 02:40:50;;;;;;;13.38;8.05;;;;;;;1.22;69.63;97235.56;5053674;28;20049;-67
2021/04/14 02:43:16;;;;;;;14.90;8.00;;;;;;;1.20;69.79;97235.00;5053364;28;20049;-67
2021/04/14 02:45:42;;;;;;;11.82;7.07;;;;;;;1.19;69.74;97233.34;5052687;28;20045;-67
2021/04/14 02:48:10;;;;;;;14.85;7.60;;;;;;;1.20;69.61;97232.31;5053311;28;20385;-69
2021/04/14 02:50:37;;;;;;;12.65;7.20;;;;;;;1.12;69.47;97230.00;5052358;28;20523;-67
2021/04/14 02:53:04;;;;;;;13.07;7.65;;;;;;;1.08;69.64;97230.69;5053042;28;20048;-69
2021/04/14 02:55:31;;;;;;;12.48;7.10;;;;;;;1.07;69.50;97229.06;5052258;28;20048;-69
2021/04/14 02:57:57;;;;;;;13.10;7.75;;;;;;;1.05;69.50;97226.63;5052900;28;20049;-68
2021/04/14 03:00:25;;;;;;;12.35;6.57;;;;;;;1.07;69.59;97227.19;5052394;28;20048;-69
2021/04/14 03:02:51;;;;;;;10.38;6.80;;;;;;;1.09;69.93;97221.59;5053185;28;20103;-68
2021/04/14 03:05:21;;;;;;;12.52;6.95;;;;;;;1.12;70.17;97227.31;5052744;28;20048;-67
2021/04/14 03:07:47;;;;;;;11.32;7.25;;;;;;;1.12;70.07;97219.25;5052259;28;20076;-66
2021/04/14 03:10:14;;;;;;;15.43;7.00;;;;;;;1.14;69.87;97225.19;5052850;28;20045;-67
2021/04/14 03:12:41;;;;;;;12.73;7.90;;;;;;;1.15;70.05;97216.13;5051910;28;20079;-66
2021/04/14 03:15:08;;;;;;;13.65;7.50;;;;;;;1.17;70.31;97222.06;5052923;28;20076;-67
2021/04/14 03:17:34;;;;;;;15.68;6.90;;;;;;;1.17;69.96;97219.38;5051992;28;20103;-67
2021/04/14 03:20:01;;;;;;;13.85;7.25;;;;;;;1.19;69.59;97219.94;5052798;28;20496;-67
2021/04/14 03:22:27;;;;;;;13.65;6.93;;;;;;;1.18;69.23;97218.31;5051819;28;20053;-67
2021/04/14 03:24:53;;;;;;;13.90;7.20;;;;;;;1.18;69.22;97215.63;5052580;28;20053;-67
2021/04/14 03:27:19;;;;;;;13.55;7.10;;;;;;;1.19;69.24;97221.81;5051646;28;20041;-67
2021/04/14 03:29:45;;;;;;;12.35;7.65;;;;;;;1.19;69.27;97227.16;5052128;28;20072;-67
2021/04/14 03:32:11;;;;;;;11.55;6.72;;;;;;;1.16;68.92;97223.13;5052054;28;20510;-67
2021/04/14 03:34:37;;;;;;;12.55;7.13;;;;;;;1.10;69.01;97218.69;5051588;28;20136;-67
2021/04/14 03:37:04;;;;;;;13.15;7.22;;;;;;;1.07;69.28;97208.44;5052553;28;20041;-67
2021/04/14 03:39:30;;;;;;;20.20;7.18;;;;;;;1.03;69.56;97213.44;5051631;28;20048;-67
2021/04/14 03:41:56;;;;;;;16.55;7.00;;;;;;;0.97;69.55;97213.56;5052595;28;20649;-67
2021/04/14 03:44:22;;;;;;;14.13;6.72;;;;;;;0.88;69.94;97214.97;5051015;28;20052;-67
2021/04/14 03:46:48;;;;;;;13.38;6.60;;;;;;;0.84;70.04;97213.84;5051676;28;20622;-67
2021/04/14 03:49:14;;;;;;;10.82;6.03;;;;;;;0.75;69.91;97219.53;5051518;28;20041;-67
2021/04/14 03:51:40;;;;;;;16.42;6.55;;;;;;;0.75;69.90;97216.06;5051796;28;20179;-67
2021/04/14 03:54:06;;;;;;;12.90;6.72;;;;;;;0.73;69.98;97212.78;5051749;28;20415;-67
2021/04/14 03:56:33;;;;;;;14.02;6.85;;;;;;;0.76;70.28;97215.00;5051490;28;20114;-67
2021/04/14 03:58:59;;;;;;;12.15;6.60;;;;;;;0.74;70.02;97211.75;5052121;28;20056;-67
2021/04/14 04:01:28;;;;;;;10.88;6.70;;;;;;;0.74;70.22;97212.56;5050464;28;20040;-67
2021/04/14 04:03:54;;;;;;;11.13;7.45;;;;;;;0.75;70.39;97211.50;5052384;28;20060;-67
2021/04/14 04:06:21;;;;;;;12.52;6.95;;;;;;;0.78;70.32;97208.38;5050460;28;20049;-67
2021/04/14 04:08:48;;;;;;;13.80;7.05;;;;;;;0.80;70.05;97210.00;5052001;28;20052;-67
2021/04/14 04:11:15;;;;;;;11.63;6.90;;;;;;;0.82;69.91;97211.38;5050662;28;20052;-67
2021/04/14 04:13:42;;;;;;;16.08;7.07;;;;;;;0.82;69.80;97210.56;5051504;28;20064;-67
2021/04/14 04:16:08;;;;;;;14.20;7.30;;;;;;;0.84;69.89;97213.84;5050943;28;20049;-67
2021/04/14 04:18:36;;;;;;;10.50;6.28;;;;;;;0.84;69.98;97213.84;5051207;28;20048;-67
2021/04/14 04:21:03;;;;;;;18.55;7.15;;;;;;;0.82;70.09;97215.91;5050984;28;20080;-68
2021/04/14 04:23:29;;;;;;;15.60;7.68;;;;;;;0.79;70.09;97214.53;5050177;28;20045;-67
2021/04/14 04:25:56;;;;;;;11.40;6.97;;;;;;;0.76;70.08;97210.44;5051660;28;20053;-67
2021/04/14 04:28:22;;;;;;;11.50;6.05;;;;;;;0.71;69.92;97220.25;5049992;28;20144;-67
2021/04/14 04:30:50;;;;;;;13.13;6.32;;;;;;;0.70;70.26;97216.75;5051742;28;20071;-67
2021/04/14 04:33:16;;;;;;;16.35;6.50;;;;;;;0.71;70.27;97215.69;5050175;28;20053;-67
2021/04/14 04:35:42;;;;;;;11.68;6.22;;;;;;;0.69;70.44;97217.81;5051179;28;20049;-67
2021/04/14 04:38:08;;;;;;;14.35;6.28;;;;;;;0.74;70.53;97215.25;5050536;28;20808;-67
2021/04/14 04:40:35;;;;;;;15.95;6.40;;;;;;;0.77;70.25;97220.13;5050896;28;20052;-67
2021/04/14 04:43:01;;;;;;;13.43;6.15;;;;;;;0.76;70.14;97213.13;5050595;28;20626;-68
2021/04/14 04:45:31;;;;;;;11.02;5.93;;;;;;;0.75;70.21;97216.06;5050283;28;20045;-67
2021/04/14 04:47:58;;;;;;;13.25;6.70;;;;;;;0.80;70.08;97216.16;5051453;28;20041;-67
2021/04/14 04:50:27;;;;;;;10.07;6.07;;;;;;;0.81;69.72;97220.47;5049547;28;20037;-67
2021/04/14 04:52:54;;;;;;;10.77;5.75;;;;;;;0.85;69.86;97216.28;5051264;28;20120;-67
2021/04/14 04:55:20;;;;;;;10.88;6.45;;;;;;;0.89;69.76;97216.59;5049544;28;20049;-67
2021/04/14 04:57:46;;;;;;;10.45;6.28;;;;;;;0.90;69.57;97213.72;5050299;28;20049;-67
2021/04/14 05:00:13;;;;;;;13.68;6.20;;;;;;;0.89;69.50;97211.25;5050093;28;20041;-67
2021/04/14 05:02:39;;;;;;;9.43;5.57;;;;;;;0.87;69.39;97219.53;5050444;28;20063;-67
2021/04/14 05:05:11;;;;;;;10.75;5.90;;;;;;;0.82;69.52;97221.28;5050240;28;20099;-67
2021/04/14 05:07:37;;;;;;;12.20;6.30;;;;;;;0.73;69.92;97221.66;5049889;28;20071;-66
2021/04/14 05:10:04;;;;;;;10.05;5.45;;;;;;;0.72;69.85;97225.38;5050461;28;20493;-67
2021/04/14 05:12:30;;;;;;;18.33;6.43;;;;;;;0.72;69.97;97222.69;5049544;28;20041;-67
2021/04/14 05:14:56;;;;;;;11.95;5.53;;;;;;;0.71;70.09;97221.06;5051139;28;20063;-67
2021/04/14 05:17:22;;;;;;;12.50;5.70;;;;;;;0.75;69.84;97226.78;5049222;28;20467;-67
2021/04/14 05:19:48;;;;;;;10.48;5.90;;;;;;;0.80;69.49;97234.13;5049726;28;20155;-67
2021/04/14 05:22:15;;;;;;;10.30;5.43;;;;;;;0.73;68.99;97227.03;5048722;28;20045;-67
2021/04/14 05:24:41;;;;;;;10.48;5.90;;;;;;;0.64;69.05;97230.28;5049441;28;20119;-67
2021/04/14 05:27:08;;;;;;;10.95;5.75;;;;;;;0.59;69.42;97225.63;5049782;28;20474;-67
2021/04/14 05:29:34;;;;;;;14.93;6.15;;;;;;;0.61;69.60;97228.88;5049737;28;20056;-67
2021/04/14 05:32:00;;;;;;;10.00;5.60;;;;;;;0.64;69.75;97228.41;5050265;28;20045;-67
2021/04/14 05:34:26;;;;;;;15.13;6.20;;;;;;;0.68;69.61;97234.94;5049552;28;20052;-67
2021/04/14 05:36:52;;;;;;;12.10;6.40;;;;;;;0.67;69.98;97233.28;5050852;28;20041;-67
2021/04/14 05:39:19;;;;;;;10.27;6.20;;;;;;;0.69;70.09;97239.25;5048801;28;20052;-66
2021/04/14 05:41:46;;;;;;;14.60;6.40;;;;;;;0.74;69.80;97231.31;5050782;28;20416;-75
2021/04/14 05:44:12;;;;;;;17.15;6.20;;;;;;;0.83;69.66;97229.09;5030394;28;20056;-71
2021/04/14 05:46:38;;;;;;;15.15;6.07;;;;;;;0.89;69.59;97232.69;5050241;28;20132;-70
2021/04/14 05:49:04;;;;;;;14.60;6.00;;;;;;;0.92;69.41;97229.56;5049342;28;20052;-73
2021/04/14 05:51:31;;;;;;;11.55;6.10;;;;;;;0.83;69.50;97234.44;5049719;28;20412;-71
2021/04/14 05:53:59;;;;;;;13.82;6.72;;;;;;;0.91;69.97;97236.78;5048120;28;20041;-70
2021/04/14 05:56:28;;;;;;;16.45;6.55;;;;;;;0.96;70.03;97233.41;5044676;28;20048;-70
2021/04/14 05:58:54;;;;;;;10.48;5.20;;;;;;;1.04;69.63;97227.66;5046530;28;20095;-70
2021/04/14 06:01:24;;;;;;;15.38;5.60;;;;;;;1.10;69.34;97233.94;5045147;28;20060;-68
2021/04/14 06:03:50;;;;;;;9.65;5.20;;;;;;;1.17;69.75;97238.16;5047158;28;20053;-69
2021/04/14 06:06:17;;;;;;;8.75;5.03;;;;;;;1.26;69.49;97234.06;5045384;28;20053;-68
2021/04/14 06:08:43;;;;;;;12.98;6.13;;;;;;;1.33;69.42;97233.09;5047119;28;20111;-68
2021/04/14 06:11:09;;;;;;;9.02;5.43;;;;;;;1.42;69.04;97226.31;5049477;28;20521;-71
2021/04/14 06:13:36;;;;;;;12.85;5.30;;;;;;;1.47;68.42;97223.72;5050567;28;20049;-70
2021/04/14 06:16:03;;;;;;;10.85;5.22;;;;;;;1.46;68.28;97235.50;5050006;28;20055;-71
2021/04/14 06:18:29;;;;;;;11.98;5.20;;;;;;;1.40;68.64;97229.22;5050694;28;20500;-70
2021/04/14 06:20:55;;;;;;;11.25;5.15;;;;;;;1.51;68.65;97232.91;5050628;28;20055;-70
2021/04/14 06:23:23;;;;;;;9.77;4.85;;;;;;;1.52;69.02;97229.19;5049619;28;20061;-70
2021/04/14 06:26:00;;;;;;;8.52;5.03;;;;;;;1.58;69.42;97230.13;5034432;28;20115;-70
2021/04/14 06:28:27;;;;;;;10.68;5.15;;;;;;;1.65;68.22;97231.59;5042794;28;20404;-69
2021/04/14 06:30:55;;;;;;;11.10;4.72;;;;;;;1.81;68.79;97230.81;5050478;28;20049;-69
2021/04/14 06:33:22;;;;;;;9.35;4.82;;;;;;;1.95;67.08;97235.91;5049476;28;20048;-70
2021/04/14 06:35:49;;;;;;;6.50;4.20;;;;;;;2.02;67.62;97242.75;5049759;28;20053;-69
2021/04/14 06:38:18;;;;;;;9.82;4.30;;;;;;;2.11;67.54;97240.50;5049784;28;20052;-70
2021/04/14 06:43:40;;;;;;;6.47;3.80;;;;;;;2.37;65.90;97232.88;5043128;28;20049;-70
2021/04/14 06:46:14;;;;;;;6.68;3.58;;;;;;;2.45;65.06;97237.81;5048754;28;20055;-70
2021/04/14 06:48:47;;;;;;;11.05;3.90;;;;;;;2.57;64.75;97241.25;5050607;28;20504;-70
2021/04/14 06:51:20;;;;;;;7.75;4.00;;;;;;;2.64;65.19;97239.22;5049756;28;20044;-69
2021/04/14 06:54:00;;;;;;;7.43;4.10;;;;;;;2.72;65.39;97230.75;5053343;28;20049;-70
2021/04/14 06:56:26;;;;;;;5.55;3.58;;;;;;;2.89;65.26;97241.47;5052989;28;20865;-69
2021/04/14 06:59:00;;;;;;;11.80;3.75;;;;;;;3.00;64.29;97237.03;5052416;28;20049;-69
2021/04/14 07:01:31;;;;;;;7.60;3.85;;;;;;;3.11;64.72;97233.44;5053052;28;20037;-70
2021/04/14 07:04:05;;;;;;;10.68;3.92;;;;;;;3.22;63.74;97234.38;5052457;28;20118;-69
2021/04/14 07:06:34;;;;;;;7.30;3.47;;;;;;;3.27;62.77;97237.13;5053205;28;20049;-69
2021/04/14 07:09:11;;;;;;;10.75;3.85;;;;;;;3.39;62.82;97230.59;5052536;28;20056;-69
2021/04/14 07:11:37;;;;;;;9.10;3.10;;;;;;;3.38;62.24;97234.31;5052202;28;20057;-69
2021/04/14 07:14:04;;;;;;;9.30;3.70;;;;;;;3.49;63.15;97235.25;5052749;28;20049;-70
2021/04/14 07:16:41;;;;;;;15.65;4.20;;;;;;;3.62;62.89;97245.66;5052329;28;20053;-70
2021/04/14 07:19:17;;;;;;;7.38;3.45;;;;;;;3.74;63.37;97248.22;5052822;28;20539;-71
2021/04/14 07:21:49;;;;;;;11.38;3.67;;;;;;;3.85;62.65;97241.88;5050830;28;20045;-69
2021/04/14 07:24:23;;;;;;;6.45;3.20;;;;;;;3.95;61.94;97230.38;5052371;28;20098;-68
2021/04/14 07:26:51;;;;;;;;;;;;;;;4.21;64.53;97241.41;5052520;28;20077;-68
2021/04/14 07:29:29;;;;;;;11.25;4.07;;;;;;;4.27;61.06;97235.81;5051845;28;19925;-67
2021/04/14 07:32:02;;;;;;;8.48;3.72;;;;;;;4.96;63.19;97243.13;5052551;28;20536;-69
2021/04/14 07:34:40;;;;;;;8.27;2.95;;;;;;;6.45;56.54;97234.47;5051577;28;20052;-69
2021/04/14 07:37:11;;;;;;;6.03;3.08;;;;;;;7.75;52.72;97227.44;5052554;28;20072;-69
2021/04/14 07:39:45;;;;;;;8.15;3.28;;;;;;;8.85;51.05;97228.91;5049988;28;20078;-69
2021/04/14 07:42:22;;;;;;;10.20;2.85;;;;;;;9.70;47.88;97227.47;5049391;28;20052;-69
2021/04/14 07:45:02;;;;;;;5.85;3.33;;;;;;;10.30;45.02;97228.59;5049380;28;20069;-69
2021/04/14 07:47:30;;;;;;;4.60;2.75;;;;;;;10.80;43.77;97228.88;5048851;28;20407;-69
2021/04/14 07:49:57;;;;;;;8.63;3.53;;;;;;;11.63;43.65;97232.56;5049601;28;20103;-70
2021/04/14 07:52:26;;;;;;;8.77;3.08;;;;;;;12.25;42.13;97227.47;5048005;28;20045;-69
2021/04/14 07:54:53;;;;;;;6.05;3.30;;;;;;;12.42;41.54;97228.72;5051032;28;20041;-69
2021/04/14 07:57:29;;;;;;;9.60;3.53;;;;;;;12.73;37.79;97224.16;5050828;28;20597;-69
2021/04/14 07:59:56;;;;;;;7.05;3.45;;;;;;;12.74;39.28;97222.25;5032354;28;20433;-69
2021/04/14 08:02:32;;;;;;;5.13;3.20;;;;;;;13.17;39.17;97233.47;5031029;28;20072;-70
2021/04/14 08:05:11;;;;;;;11.32;3.97;;;;;;;13.39;36.47;97224.44;5031690;28;20129;-69
2021/04/14 08:07:40;;;;;;;6.10;3.45;;;;;;;13.51;37.19;97224.66;5032277;28;20056;-69
2021/04/14 08:10:10;;;;;;;8.00;3.10;;;;;;;13.47;36.14;97231.09;5031047;28;20045;-69
2021/04/14 08:12:40;;;;;;;7.78;3.13;;;;;;;13.52;38.43;97222.72;5032398;28;20052;-69
2021/04/14 08:15:09;;;;;;;6.68;3.28;;;;;;;14.02;37.73;97225.94;5030933;28;20111;-70
2021/04/14 08:17:36;;;;;;;8.38;3.03;;;;;;;14.42;35.67;97225.06;5032129;28;20049;-69
2021/04/14 08:20:06;;;;;;;11.57;3.42;;;;;;;14.76;34.09;97216.03;5030794;28;20049;-70
2021/04/14 08:22:32;;;;;;;7.78;3.28;;;;;;;14.83;36.83;97216.38;5044124;28;20056;-69
2021/04/14 08:25:02;;;;;;;7.35;3.30;;;;;;;14.66;34.10;97208.94;5051800;28;20457;-70
2021/04/14 08:27:36;;;;;;;5.93;2.75;;;;;;;14.68;32.86;97208.63;5050649;28;20052;-69
2021/04/14 08:30:08;;;;;;;8.25;3.10;;;;;;;14.92;33.78;97210.84;5051466;28;20049;-70
2021/04/14 08:32:38;;;;;;;5.97;3.15;;;;;;;15.12;33.92;97207.44;5050541;28;20041;-69
2021/04/14 08:35:06;;;;;;;5.43;2.60;;;;;;;14.87;32.06;97207.13;5051462;28;20048;-71
2021/04/14 08:37:35;;;;;;;8.23;3.45;;;;;;;14.74;32.37;97207.34;5050792;28;20053;-69
2021/04/14 08:40:05;;;;;;;5.97;2.75;;;;;;;14.92;34.47;97197.94;5051212;28;20052;-71
2021/04/14 08:42:34;;;;;;;4.45;2.50;;;;;;;14.94;31.93;97208.59;5051130;28;20076;-69
2021/04/14 08:45:18;;;;;;;7.32;2.85;;;;;;;15.10;33.19;97199.53;5051140;28;20045;-71
2021/04/14 08:47:51;;;;;;;6.78;2.90;;;;;;;15.46;33.53;97201.03;5051805;28;20549;-72
2021/04/14 08:50:24;;;;;;;7.72;2.83;;;;;;;15.05;33.84;97198.91;5050141;28;20045;-70
2021/04/14 08:52:52;;;;;;;7.70;3.22;;;;;;;14.85;31.02;97192.97;5051307;28;20048;-70
2021/04/14 08:55:20;;;;;;;6.95;3.00;;;;;;;15.13;32.61;97187.09;5050014;28;20041;-71
2021/04/14 08:57:47;;;;;;;5.95;3.13;;;;;;;15.59;32.04;97183.53;5050763;28;20045;-69
2021/04/14 09:00:13;;;;;;;5.45;2.95;;;;;;;15.70;31.56;97186.75;5048180;28;20044;-70
2021/04/14 09:02:41;;;;;;;5.25;2.35;;;;;;;15.77;29.59;97184.31;5048687;28;20041;-69
2021/04/14 09:05:10;;;;;;;7.05;2.58;;;;;;;15.32;29.11;97187.53;5049696;28;20060;-70
2021/04/14 09:07:38;;;;;;;8.13;2.58;;;;;;;14.51;30.76;97185.59;5049915;28;20106;-69
2021/04/14 09:10:07;;;;;;;9.63;2.50;;;;;;;13.42;31.62;97188.25;5050085;28;20556;-70
2021/04/14 09:12:37;;;;;;;4.95;2.50;;;;;;;12.09;34.97;97182.50;5049549;28;20049;-69
2021/04/14 09:15:09;;;;;;;4.80;2.45;;;;;;;11.36;36.65;97186.19;5050862;28;20424;-70
2021/04/14 09:17:35;;;;;;;5.53;2.50;;;;;;;10.75;37.91;97192.75;5048810;28;20055;-69
2021/04/14 09:20:17;;;;;;;7.32;3.15;;;;;;;9.92;38.82;97189.66;5044759;28;20053;-71
2021/04/14 09:22:43;;;;;;;6.28;2.47;;;;;;;9.54;41.56;97191.50;5043082;28;20381;-71
2021/04/14 09:25:17;;;;;;;8.07;3.20;;;;;;;9.19;42.00;97181.81;5046919;28;20051;-71
2021/04/14 09:27:48;;;;;;;6.38;2.90;;;;;;;8.84;43.35;97178.41;5045963;28;20057;-70
2021/04/14 09:30:26;;;;;;;7.30;2.67;;;;;;;8.55;43.24;97179.19;5046119;28;20132;-71
2021/04/14 09:32:59;;;;;;;8.25;2.65;;;;;;;8.23;42.48;97179.69;5047911;28;20060;-70
2021/04/14 09:35:41;;;;;;;7.03;2.72;;;;;;;8.05;44.37;97180.38;5046512;28;20049;-70
2021/04/14 09:38:12;;;;;;;7.00;3.10;;;;;;;7.92;45.69;97172.84;5046685;28;20055;-70
2021/04/14 09:40:38;;;;;;;9.93;2.85;;;;;;;7.85;44.95;97167.75;5047326;28;20734;-70
2021/04/14 09:43:17;;;;;;;7.65;3.22;;;;;;;7.65;45.29;97173.28;5028854;28;20424;-70
2021/04/14 09:45:54;;;;;;;6.03;3.03;;;;;;;7.55;47.24;97166.00;5047007;28;20049;-69
2021/04/14 09:48:20;;;;;;;11.68;3.28;;;;;;;7.49;46.81;97170.63;5045838;28;20078;-70
2021/04/14 09:50:48;;;;;;;6.40;3.22;;;;;;;7.55;47.14;97169.50;5047466;28;20049;-70
2021/04/14 09:53:37;;;;;;;7.82;2.60;;;;;;;7.66;44.86;97164.03;5046221;28;20059;-70
2021/04/14 09:56:08;;;;;;;5.47;3.38;;;;;;;8.13;44.12;97162.66;5046716;28;20052;-70
2021/04/14 09:58:42;;;;;;;4.95;2.30;;;;;;;8.75;42.69;97158.38;5046928;28;20049;-70
2021/04/14 10:01:13;;;;;;;8.25;2.75;;;;;;;9.49;40.72;97156.19;5046276;28;20144;-70
2021/04/14 10:03:43;;;;;;;5.45;2.35;;;;;;;10.25;43.65;97148.94;5047997;28;20057;-70
2021/04/14 10:06:13;;;;;;;5.63;2.40;;;;;;;11.05;38.28;97147.81;5047194;28;20060;-71
2021/04/14 10:08:41;;;;;;;7.32;2.40;;;;;;;11.72;40.21;97151.63;5047661;28;20045;-72
2021/04/14 10:11:08;;;;;;;3.35;1.88;;;;;;;12.42;37.35;97147.59;5046417;28;20048;-71
2021/04/14 10:13:35;;;;;;;3.88;1.38;;;;;;;13.03;32.79;97147.97;5047175;28;20053;-72
2021/04/14 10:16:02;;;;;;;3.80;1.77;;;;;;;13.32;31.47;97134.63;5046999;28;20076;-72
2021/04/14 10:18:31;;;;;;;3.00;1.30;;;;;;;13.64;30.93;97143.56;5046517;28;20087;-71
2021/04/14 10:21:13;;;;;;;7.72;1.60;;;;;;;13.96;32.20;97138.78;5047323;28;20053;-71
2021/04/14 10:23:39;;;;;;;4.57;1.50;;;;;;;13.97;31.90;97135.72;5026669;28;20072;-71
2021/04/14 10:26:08;;;;;;;4.55;1.42;;;;;;;14.01;31.58;97146.84;5027270;28;20054;-72
2021/04/14 10:28:35;;;;;;;4.57;1.30;;;;;;;13.77;34.72;97131.66;5041935;28;20056;-72
2021/04/14 10:31:07;;;;;;;4.45;1.40;;;;;;;13.38;31.81;97132.56;5047180;28;20053;-74
2021/04/14 10:33:34;;;;;;;3.17;1.05;;;;;;;13.05;30.82;97126.63;5049836;28;20382;-71
2021/04/14 10:36:10;;;;;;;3.30;1.00;;;;;;;12.66;29.29;97125.44;5049653;28;20114;-71
2021/04/14 10:38:37;;;;;;;3.50;1.23;;;;;;;12.68;34.66;97125.91;5049961;28;20041;-70
2021/04/14 10:41:14;;;;;;;2.55;1.20;;;;;;;12.84;30.45;97130.97;5049125;28;20052;-72
2021/04/14 10:43:40;;;;;;;3.42;1.25;;;;;;;13.01;31.19;97117.41;5050473;28;20408;-71
2021/04/14 10:46:11;;;;;;;3.50;1.25;;;;;;;13.06;32.44;97117.28;5048880;28;20123;-71
2021/04/14 10:48:40;;;;;;;3.83;1.38;;;;;;;13.09;29.53;97116.63;5050403;28;20049;-70
2021/04/14 10:51:09;;;;;;;6.45;1.17;;;;;;;13.00;29.56;97113.09;5048704;28;20041;-72
2021/04/14 10:53:40;;;;;;;4.70;1.40;;;;;;;12.89;31.60;97112.53;5049778;28;20052;-71
2021/04/14 10:56:14;;;;;;;4.22;1.40;;;;;;;12.60;32.65;97107.56;5050789;28;20099;-71
2021/04/14 10:58:40;;;;;;;2.67;1.25;;;;;;;12.33;31.27;97111.25;5052518;28;20052;-70
2021/04/14 11:01:11;;;;;;;4.68;1.40;;;;;;;12.12;32.17;97107.38;5053056;28;20045;-70
2021/04/14 11:03:40;;;;;;;9.35;1.65;;;;;;;11.99;32.67;97107.13;5052590;28;20099;-70
2021/04/14 11:06:06;;;;;;;3.10;1.30;;;;;;;12.03;33.87;97110.03;5053268;28;20045;-71
2021/04/14 11:08:34;;;;;;;4.90;1.10;;;;;;;11.98;30.23;97110.16;5052388;28;20132;-70
2021/04/14 11:11:02;;;;;;;1.98;1.00;;;;;;;11.72;31.02;97113.44;5053332;28;20045;-70
2021/04/14 11:13:31;;;;;;;4.43;1.63;;;;;;;11.60;34.40;97120.53;5052141;28;20047;-70
2021/04/14 11:15:58;;;;;;;6.90;2.72;;;;;;;10.92;41.91;97127.63;5052643;28;20045;-70
2021/04/14 11:18:32;;;;;;;8.20;2.38;;;;;;;10.17;44.93;97121.22;5052339;28;20396;-70
2021/04/14 11:21:06;;;;;;;6.45;2.33;;;;;;;9.56;51.07;97124.84;5052358;28;20053;-70
2021/04/14 11:23:34;;;;;;;7.20;3.35;;;;;;;9.05;49.99;97120.03;5052723;28;20120;-69
2021/04/14 11:26:07;;;;;;;3.97;2.00;;;;;;;8.70;50.86;97115.00;5051787;28;20052;-70
2021/04/14 11:28:42;;;;;;;3.92;2.10;;;;;;;8.45;54.01;97116.84;5052943;28;20492;-70
2021/04/14 11:31:10;;;;;;;3.05;2.20;;;;;;;7.85;49.39;97108.09;5051736;28;20049;-70
2021/04/14 11:33:38;;;;;;;4.43;2.20;;;;;;;7.40;54.07;97091.00;5034811;28;20064;-69
2021/04/14 11:36:17;;;;;;;4.10;2.30;;;;;;;7.03;54.69;97086.84;5051634;28;20049;-68
2021/04/14 11:38:44;;;;;;;7.00;2.78;;;;;;;6.85;53.03;97081.25;5051864;28;20045;-69
2021/04/14 11:41:16;;;;;;;5.28;2.38;;;;;;;6.77;51.72;97077.19;5052411;28;20053;-70
2021/04/14 11:43:42;;;;;;;3.83;1.80;;;;;;;6.76;50.61;97081.00;5051605;28;20044;-69